createdAt,value
2019-02-24T00:00:10.084Z,1031.52
2019-02-24T00:00:36.173Z,1031.52
2019-02-24T00:01:02.303Z,1031.5
2019-02-24T00:01:28.441Z,1031.52
2019-02-24T00:01:54.568Z,1031.5
2019-02-24T00:02:20.671Z,1031.48
2019-02-24T00:02:46.781Z,1031.53
2019-02-24T00:03:12.885Z,1031.49
2019-02-24T00:03:38.984Z,1031.53
2019-02-24T00:04:05.228Z,1031.53
2019-02-24T00:04:31.331Z,1031.49
2019-02-24T00:04:57.435Z,1031.5
2019-02-24T00:05:23.544Z,1031.5
2019-02-24T00:05:49.641Z,1031.52
2019-02-24T00:06:15.733Z,1031.49
2019-02-24T00:06:41.840Z,1031.54
2019-02-24T00:07:07.933Z,1031.54
2019-02-24T00:07:34.034Z,1031.52
2019-02-24T00:08:00.141Z,1031.53
2019-02-24T00:08:26.247Z,1031.54
2019-02-24T00:08:52.356Z,1031.59
2019-02-24T00:09:18.458Z,1031.56
2019-02-24T00:09:44.569Z,1031.56
2019-02-24T00:10:10.697Z,1031.58
2019-02-24T00:10:36.802Z,1031.58
2019-02-24T00:11:02.911Z,1031.56
2019-02-24T00:11:30.003Z,1031.57
2019-02-24T00:11:56.102Z,1031.58
2019-02-24T00:12:22.208Z,1031.58
2019-02-24T00:12:48.316Z,1031.57
2019-02-24T00:13:14.427Z,1031.53
2019-02-24T00:13:40.556Z,1031.62
2019-02-24T00:14:06.662Z,1031.56
2019-02-24T00:14:32.764Z,1031.58
2019-02-24T00:14:58.869Z,1031.55
2019-02-24T00:15:24.977Z,1031.52
2019-02-24T00:15:51.082Z,1031.53
2019-02-24T00:16:17.186Z,1031.52
2019-02-24T00:16:43.297Z,1031.54
2019-02-24T00:17:09.428Z,1031.5
2019-02-24T00:17:35.537Z,1031.48
2019-02-24T00:18:01.628Z,1031.5
2019-02-24T00:18:27.739Z,1031.47
2019-02-24T00:18:53.833Z,1031.47
2019-02-24T00:19:19.943Z,1031.52
2019-02-24T00:19:46.047Z,1031.44
2019-02-24T00:20:12.166Z,1031.48
2019-02-24T00:20:38.295Z,1031.52
2019-02-24T00:21:04.399Z,1031.48
2019-02-24T00:21:30.508Z,1031.52
2019-02-24T00:21:56.616Z,1031.49
2019-02-24T00:22:22.713Z,1031.52
2019-02-24T00:22:48.830Z,1031.5
2019-02-24T00:23:14.925Z,1031.51
2019-02-24T00:23:41.039Z,1031.49
2019-02-24T00:24:07.170Z,1031.51
2019-02-24T00:24:33.307Z,1031.51
2019-02-24T00:24:59.415Z,1031.56
2019-02-24T00:25:25.515Z,1031.54
2019-02-24T00:25:51.621Z,1031.5
2019-02-24T00:26:17.723Z,1031.53
2019-02-24T00:26:43.833Z,1031.47
2019-02-24T00:27:09.931Z,1031.54
2019-02-24T00:27:36.040Z,1031.56
2019-02-24T00:28:07.068Z,1031.52
2019-02-24T00:28:29.240Z,1031.56
2019-02-24T00:28:55.346Z,1031.56
2019-02-24T00:29:21.445Z,1031.51
2019-02-24T00:29:47.556Z,1031.56
2019-02-24T00:30:13.661Z,1031.57
2019-02-24T00:30:39.768Z,1031.54
2019-02-24T00:31:05.869Z,1031.57
2019-02-24T00:31:31.976Z,1031.5
2019-02-24T00:31:58.075Z,1031.54
2019-02-24T00:32:24.180Z,1031.5
2019-02-24T00:32:50.293Z,1031.5
2019-02-24T00:33:16.429Z,1031.53
2019-02-24T00:33:42.536Z,1031.5
2019-02-24T00:34:08.665Z,1031.47
2019-02-24T00:34:34.752Z,1031.46
2019-02-24T00:35:00.848Z,1031.48
2019-02-24T00:35:26.988Z,1031.45
2019-02-24T00:35:53.097Z,1031.49
2019-02-24T00:36:19.198Z,1031.48
2019-02-24T00:36:45.300Z,1031.47
2019-02-24T00:37:11.411Z,1031.47
2019-02-24T00:37:37.516Z,1031.48
2019-02-24T00:38:03.618Z,1031.49
2019-02-24T00:38:29.744Z,1031.44
2019-02-24T00:38:55.857Z,1031.5
2019-02-24T00:39:21.960Z,1031.45
2019-02-24T00:39:48.064Z,1031.48
2019-02-24T00:40:14.173Z,1031.49
2019-02-24T00:40:40.282Z,1031.49
2019-02-24T00:41:06.381Z,1031.49
2019-02-24T00:41:32.495Z,1031.49
2019-02-24T00:41:58.601Z,1031.51
2019-02-24T00:42:24.701Z,1031.51
2019-02-24T00:42:50.808Z,1031.49
2019-02-24T00:43:16.911Z,1031.51
2019-02-24T00:43:43.018Z,1031.45
2019-02-24T00:44:09.153Z,1031.46
2019-02-24T00:44:35.257Z,1031.46
2019-02-24T00:45:01.367Z,1031.48
2019-02-24T00:45:27.472Z,1031.48
2019-02-24T00:45:53.570Z,1031.45
2019-02-24T00:46:19.685Z,1031.45
2019-02-24T00:46:45.791Z,1031.44
2019-02-24T00:47:11.891Z,1031.42
2019-02-24T00:47:37.989Z,1031.44
2019-02-24T00:48:04.099Z,1031.43
2019-02-24T00:48:30.206Z,1031.41
2019-02-24T00:48:56.314Z,1031.42
2019-02-24T00:49:22.422Z,1031.41
2019-02-24T00:49:48.528Z,1031.39
2019-02-24T00:50:14.627Z,1031.34
2019-02-24T00:50:40.731Z,1031.38
2019-02-24T00:51:06.830Z,1031.34
2019-02-24T00:51:32.965Z,1031.34
2019-02-24T00:51:59.076Z,1031.34
2019-02-24T00:52:25.190Z,1031.32
2019-02-24T00:52:51.311Z,1031.3
2019-02-24T00:53:17.415Z,1031.33
2019-02-24T00:53:43.522Z,1031.32
2019-02-24T00:54:09.631Z,1031.32
2019-02-24T00:54:35.723Z,1031.32
2019-02-24T00:55:01.836Z,1031.29
2019-02-24T00:55:27.936Z,1031.3
2019-02-24T00:55:54.050Z,1031.3
2019-02-24T00:56:20.157Z,1031.28
2019-02-24T00:56:46.262Z,1031.31
2019-02-24T00:57:12.369Z,1031.29
2019-02-24T00:57:38.475Z,1031.3
2019-02-24T00:58:04.577Z,1031.32
2019-02-24T00:58:32.220Z,1031.3
2019-02-24T00:58:58.325Z,1031.3
2019-02-24T00:59:24.432Z,1031.3
2019-02-24T00:59:50.533Z,1031.28
2019-02-24T01:00:16.643Z,1031.3
2019-02-24T01:00:42.748Z,1031.32
2019-02-24T01:01:08.879Z,1031.27
2019-02-24T01:01:34.977Z,1031.3
2019-02-24T01:02:01.087Z,1031.31
2019-02-24T01:02:27.186Z,1031.35
2019-02-24T01:02:53.290Z,1031.31
2019-02-24T01:03:19.401Z,1031.3
2019-02-24T01:03:45.502Z,1031.34
2019-02-24T01:04:11.614Z,1031.35
2019-02-24T01:04:37.719Z,1031.35
2019-02-24T01:05:03.826Z,1031.34
2019-02-24T01:05:29.929Z,1031.38
2019-02-24T01:05:56.058Z,1031.36
2019-02-24T01:06:22.143Z,1031.4
2019-02-24T01:06:48.250Z,1031.38
2019-02-24T01:07:14.360Z,1031.38
2019-02-24T01:07:40.461Z,1031.37
2019-02-24T01:08:06.566Z,1031.39
2019-02-24T01:08:32.696Z,1031.38
2019-02-24T01:08:58.798Z,1031.37
2019-02-24T01:09:24.905Z,1031.37
2019-02-24T01:09:51.011Z,1031.41
2019-02-24T01:10:17.112Z,1031.43
2019-02-24T01:10:43.225Z,1031.44
2019-02-24T01:11:09.330Z,1031.4
2019-02-24T01:11:35.440Z,1031.41
2019-02-24T01:12:01.572Z,1031.44
2019-02-24T01:12:27.677Z,1031.42
2019-02-24T01:12:53.784Z,1031.41
2019-02-24T01:13:19.930Z,1031.43
2019-02-24T01:13:46.026Z,1031.43
2019-02-24T01:14:12.131Z,1031.42
2019-02-24T01:14:38.232Z,1031.44
2019-02-24T01:15:04.337Z,1031.43
2019-02-24T01:15:30.452Z,1031.39
2019-02-24T01:15:56.586Z,1031.48
2019-02-24T01:16:22.691Z,1031.43
2019-02-24T01:16:48.798Z,1031.4
2019-02-24T01:17:14.902Z,1031.45
2019-02-24T01:17:41.004Z,1031.43
2019-02-24T01:18:07.116Z,1031.44
2019-02-24T01:18:33.225Z,1031.4
2019-02-24T01:18:59.327Z,1031.41
2019-02-24T01:19:25.431Z,1031.38
2019-02-24T01:19:51.575Z,1031.38
2019-02-24T01:20:17.684Z,1031.38
2019-02-24T01:20:43.782Z,1031.38
2019-02-24T01:21:09.888Z,1031.39
2019-02-24T01:21:36.010Z,1031.39
2019-02-24T01:22:02.116Z,1031.38
2019-02-24T01:22:28.222Z,1031.38
2019-02-24T01:22:54.325Z,1031.38
2019-02-24T01:23:20.430Z,1031.37
2019-02-24T01:23:46.533Z,1031.36
2019-02-24T01:24:12.670Z,1031.33
2019-02-24T01:24:38.768Z,1031.36
2019-02-24T01:25:04.879Z,1031.37
2019-02-24T01:25:30.990Z,1031.38
2019-02-24T01:25:57.127Z,1031.36
2019-02-24T01:26:23.231Z,1031.39
2019-02-24T01:26:49.339Z,1031.42
2019-02-24T01:27:15.443Z,1031.35
2019-02-24T01:27:41.577Z,1031.38
2019-02-24T01:28:07.684Z,1031.39
2019-02-24T01:28:35.766Z,1031.4
2019-02-24T01:29:01.892Z,1031.37
2019-02-24T01:29:28.033Z,1031.38
2019-02-24T01:29:54.139Z,1031.37
2019-02-24T01:30:20.240Z,1031.37
2019-02-24T01:30:46.351Z,1031.39
2019-02-24T01:31:12.451Z,1031.37
2019-02-24T01:31:38.555Z,1031.37
2019-02-24T01:32:04.664Z,1031.38
2019-02-24T01:32:30.762Z,1031.32
2019-02-24T01:32:56.875Z,1031.35
2019-02-24T01:33:22.986Z,1031.39
2019-02-24T01:33:49.121Z,1031.34
2019-02-24T01:34:15.220Z,1031.32
2019-02-24T01:34:41.347Z,1031.35
2019-02-24T01:35:07.458Z,1031.33
2019-02-24T01:35:33.567Z,1031.32
2019-02-24T01:35:59.668Z,1031.32
2019-02-24T01:36:25.802Z,1031.36
2019-02-24T01:36:51.903Z,1031.33
2019-02-24T01:37:18.018Z,1031.28
2019-02-24T01:37:44.123Z,1031.29
2019-02-24T01:38:10.221Z,1031.34
2019-02-24T01:38:36.322Z,1031.31
2019-02-24T01:39:02.465Z,1031.32
2019-02-24T01:39:28.571Z,1031.35
2019-02-24T01:39:54.677Z,1031.34
2019-02-24T01:40:20.791Z,1031.32
2019-02-24T01:40:46.891Z,1031.34
2019-02-24T01:41:13.006Z,1031.39
2019-02-24T01:41:39.112Z,1031.4
2019-02-24T01:42:05.219Z,1031.43
2019-02-24T01:42:31.318Z,1031.37
2019-02-24T01:42:57.428Z,1031.4
2019-02-24T01:43:23.535Z,1031.39
2019-02-24T01:43:49.667Z,1031.41
2019-02-24T01:44:15.773Z,1031.43
2019-02-24T01:44:41.893Z,1031.42
2019-02-24T01:45:07.988Z,1031.43
2019-02-24T01:45:34.090Z,1031.41
2019-02-24T01:46:00.201Z,1031.42
2019-02-24T01:46:26.304Z,1031.46
2019-02-24T01:46:52.413Z,1031.48
2019-02-24T01:47:18.522Z,1031.41
2019-02-24T01:47:44.622Z,1031.41
2019-02-24T01:48:10.727Z,1031.44
2019-02-24T01:48:36.873Z,1031.38
2019-02-24T01:49:02.976Z,1031.39
2019-02-24T01:49:29.078Z,1031.39
2019-02-24T01:49:55.187Z,1031.4
2019-02-24T01:50:21.284Z,1031.39
2019-02-24T01:50:47.394Z,1031.4
2019-02-24T01:51:13.496Z,1031.4
2019-02-24T01:51:39.604Z,1031.4
2019-02-24T01:52:05.713Z,1031.42
2019-02-24T01:52:31.823Z,1031.43
2019-02-24T01:52:57.952Z,1031.43
2019-02-24T01:53:24.084Z,1031.44
2019-02-24T01:53:50.192Z,1031.42
2019-02-24T01:54:16.299Z,1031.43
2019-02-24T01:54:42.405Z,1031.41
2019-02-24T01:55:08.514Z,1031.41
2019-02-24T01:55:34.652Z,1031.39
2019-02-24T01:56:00.760Z,1031.41
2019-02-24T01:56:26.874Z,1031.41
2019-02-24T01:56:52.980Z,1031.43
2019-02-24T01:57:19.087Z,1031.42
2019-02-24T01:57:45.187Z,1031.42
2019-02-24T01:58:11.323Z,1031.39
2019-02-24T01:58:39.416Z,1031.43
2019-02-24T01:59:05.514Z,1031.38
2019-02-24T01:59:31.624Z,1031.39
2019-02-24T01:59:57.730Z,1031.41
2019-02-24T02:00:23.869Z,1031.4
2019-02-24T02:00:49.973Z,1031.39
2019-02-24T02:01:16.080Z,1031.36
2019-02-24T02:01:42.182Z,1031.33
2019-02-24T02:02:08.290Z,1031.34
2019-02-24T02:02:34.392Z,1031.34
2019-02-24T02:03:00.502Z,1031.34
2019-02-24T02:03:26.607Z,1031.35
2019-02-24T02:03:52.726Z,1031.4
2019-02-24T02:04:18.820Z,1031.36
2019-02-24T02:04:44.933Z,1031.37
2019-02-24T02:05:11.033Z,1031.34
2019-02-24T02:05:37.140Z,1031.39
2019-02-24T02:06:03.272Z,1031.37
2019-02-24T02:06:29.408Z,1031.35
2019-02-24T02:06:55.516Z,1031.39
2019-02-24T02:07:21.653Z,1031.37
2019-02-24T02:07:47.753Z,1031.39
2019-02-24T02:08:13.866Z,1031.42
2019-02-24T02:08:39.964Z,1031.4
2019-02-24T02:09:06.075Z,1031.4
2019-02-24T02:09:32.176Z,1031.37
2019-02-24T02:09:58.281Z,1031.37
2019-02-24T02:10:24.389Z,1031.38
2019-02-24T02:10:50.487Z,1031.38
2019-02-24T02:11:16.591Z,1031.39
2019-02-24T02:11:42.704Z,1031.38
2019-02-24T02:12:08.801Z,1031.39
2019-02-24T02:12:34.912Z,1031.38
2019-02-24T02:13:01.044Z,1031.37
2019-02-24T02:13:27.151Z,1031.39
2019-02-24T02:13:53.249Z,1031.37
2019-02-24T02:14:19.354Z,1031.36
2019-02-24T02:14:45.461Z,1031.33
2019-02-24T02:15:11.599Z,1031.32
2019-02-24T02:15:37.706Z,1031.35
2019-02-24T02:16:03.812Z,1031.33
2019-02-24T02:16:29.923Z,1031.34
2019-02-24T02:16:56.068Z,1031.32
2019-02-24T02:17:22.169Z,1031.32
2019-02-24T02:17:48.275Z,1031.3
2019-02-24T02:18:14.382Z,1031.36
2019-02-24T02:18:40.483Z,1031.29
2019-02-24T02:19:06.592Z,1031.31
2019-02-24T02:19:32.697Z,1031.31
2019-02-24T02:19:58.798Z,1031.32
2019-02-24T02:20:24.937Z,1031.32
2019-02-24T02:20:51.042Z,1031.28
2019-02-24T02:21:17.153Z,1031.31
2019-02-24T02:21:43.275Z,1031.29
2019-02-24T02:22:09.382Z,1031.28
2019-02-24T02:22:35.485Z,1031.25
2019-02-24T02:23:01.628Z,1031.29
2019-02-24T02:23:27.759Z,1031.25
2019-02-24T02:23:53.866Z,1031.26
2019-02-24T02:24:19.963Z,1031.24
2019-02-24T02:24:46.065Z,1031.23
2019-02-24T02:25:12.190Z,1031.25
2019-02-24T02:25:38.301Z,1031.24
2019-02-24T02:26:04.400Z,1031.25
2019-02-24T02:26:30.506Z,1031.26
2019-02-24T02:26:56.617Z,1031.23
2019-02-24T02:27:22.716Z,1031.22
2019-02-24T02:27:48.816Z,1031.21
2019-02-24T02:28:14.924Z,1031.2
2019-02-24T02:28:44.082Z,1031.22
2019-02-24T02:29:09.114Z,1031.2
2019-02-24T02:29:35.221Z,1031.2
2019-02-24T02:30:01.330Z,1031.17
2019-02-24T02:30:27.466Z,1031.17
2019-02-24T02:30:53.606Z,1031.21
2019-02-24T02:31:19.737Z,1031.18
2019-02-24T02:31:45.843Z,1031.2
2019-02-24T02:32:11.957Z,1031.16
2019-02-24T02:32:38.058Z,1031.16
2019-02-24T02:33:04.229Z,1031.14
2019-02-24T02:33:30.340Z,1031.16
2019-02-24T02:33:56.442Z,1031.17
2019-02-24T02:34:22.557Z,1031.15
2019-02-24T02:34:48.656Z,1031.14
2019-02-24T02:35:14.762Z,1031.11
2019-02-24T02:35:40.877Z,1031.15
2019-02-24T02:36:06.977Z,1031.13
2019-02-24T02:36:33.085Z,1031.16
2019-02-24T02:36:59.186Z,1031.14
2019-02-24T02:37:25.297Z,1031.13
2019-02-24T02:37:51.397Z,1031.12
2019-02-24T02:38:17.505Z,1031.13
2019-02-24T02:38:43.613Z,1031.15
2019-02-24T02:39:09.720Z,1031.14
2019-02-24T02:39:35.823Z,1031.14
2019-02-24T02:40:01.966Z,1031.1
2019-02-24T02:40:28.096Z,1031.08
2019-02-24T02:40:54.204Z,1031.1
2019-02-24T02:41:20.303Z,1031.07
2019-02-24T02:41:46.407Z,1031.08
2019-02-24T02:42:12.577Z,1031.04
2019-02-24T02:42:38.670Z,1031.05
2019-02-24T02:43:04.783Z,1031
2019-02-24T02:43:30.882Z,1030.99
2019-02-24T02:43:57.013Z,1031.02
2019-02-24T02:44:23.137Z,1031
2019-02-24T02:44:49.276Z,1030.99
2019-02-24T02:45:15.421Z,1031.04
2019-02-24T02:45:41.521Z,1031.01
2019-02-24T02:46:07.639Z,1031.03
2019-02-24T02:46:33.785Z,1031.01
2019-02-24T02:46:59.921Z,1030.99
2019-02-24T02:47:26.016Z,1031.02
2019-02-24T02:47:52.126Z,1031
2019-02-24T02:48:18.228Z,1030.99
2019-02-24T02:48:44.336Z,1031.01
2019-02-24T02:49:10.443Z,1030.99
2019-02-24T02:49:36.544Z,1030.97
2019-02-24T02:50:02.668Z,1030.98
2019-02-24T02:50:28.770Z,1030.96
2019-02-24T02:50:54.883Z,1030.98
2019-02-24T02:51:20.981Z,1030.97
2019-02-24T02:51:47.119Z,1030.95
2019-02-24T02:52:13.249Z,1030.94
2019-02-24T02:52:39.354Z,1030.97
2019-02-24T02:53:05.497Z,1030.94
2019-02-24T02:53:31.628Z,1030.95
2019-02-24T02:53:57.735Z,1030.93
2019-02-24T02:54:23.865Z,1030.9
2019-02-24T02:54:50.029Z,1030.9
2019-02-24T02:55:16.168Z,1030.93
2019-02-24T02:55:42.275Z,1030.9
2019-02-24T02:56:08.363Z,1030.89
2019-02-24T02:56:34.501Z,1030.93
2019-02-24T02:57:00.601Z,1030.91
2019-02-24T02:57:26.702Z,1030.95
2019-02-24T02:57:52.821Z,1030.93
2019-02-24T02:58:18.915Z,1030.95
2019-02-24T02:58:53.816Z,1030.95
2019-02-24T02:59:13.195Z,1030.91
2019-02-24T02:59:39.330Z,1030.97
2019-02-24T03:00:05.479Z,1030.93
2019-02-24T03:00:31.629Z,1030.92
2019-02-24T03:00:57.745Z,1030.96
2019-02-24T03:01:23.843Z,1030.96
2019-02-24T03:01:49.954Z,1030.95
2019-02-24T03:02:23.989Z,1030.97
2019-02-24T03:02:44.168Z,1030.96
2019-02-24T03:03:10.275Z,1030.96
2019-02-24T03:03:36.409Z,1030.99
2019-02-24T03:04:02.548Z,1030.96
2019-02-24T03:04:28.646Z,1030.96
2019-02-24T03:04:54.786Z,1030.97
2019-02-24T03:05:20.914Z,1031.02
2019-02-24T03:05:47.030Z,1030.98
2019-02-24T03:06:13.137Z,1030.95
2019-02-24T03:06:39.263Z,1030.96
2019-02-24T03:07:05.357Z,1031
2019-02-24T03:07:31.473Z,1030.99
2019-02-24T03:07:57.570Z,1030.99
2019-02-24T03:08:23.667Z,1030.98
2019-02-24T03:08:49.776Z,1030.97
2019-02-24T03:09:15.942Z,1030.98
2019-02-24T03:09:42.041Z,1030.95
2019-02-24T03:10:08.197Z,1030.97
2019-02-24T03:10:34.302Z,1030.97
2019-02-24T03:11:00.402Z,1030.96
2019-02-24T03:11:26.546Z,1030.97
2019-02-24T03:11:52.684Z,1030.98
2019-02-24T03:12:18.809Z,1030.98
2019-02-24T03:12:44.908Z,1030.99
2019-02-24T03:13:11.016Z,1031.04
2019-02-24T03:13:37.147Z,1030.99
2019-02-24T03:14:03.254Z,1030.98
2019-02-24T03:14:29.356Z,1031.03
2019-02-24T03:14:55.461Z,1031.01
2019-02-24T03:15:21.567Z,1030.98
2019-02-24T03:15:47.671Z,1031.01
2019-02-24T03:16:13.778Z,1031.05
2019-02-24T03:16:39.883Z,1031.02
2019-02-24T03:17:05.976Z,1031.07
2019-02-24T03:17:32.085Z,1031.06
2019-02-24T03:17:58.223Z,1031.05
2019-02-24T03:18:24.325Z,1031.08
2019-02-24T03:18:50.471Z,1031.07
2019-02-24T03:19:16.571Z,1031.1
2019-02-24T03:19:42.714Z,1031.08
2019-02-24T03:20:08.821Z,1031.05
2019-02-24T03:20:34.921Z,1031.03
2019-02-24T03:21:01.028Z,1031.06
2019-02-24T03:21:27.134Z,1031.07
2019-02-24T03:21:53.247Z,1031.07
2019-02-24T03:22:19.420Z,1031.08
2019-02-24T03:22:45.517Z,1031.07
2019-02-24T03:23:11.622Z,1031.05
2019-02-24T03:23:37.726Z,1031.09
2019-02-24T03:24:03.836Z,1031.09
2019-02-24T03:24:29.939Z,1031.12
2019-02-24T03:24:56.048Z,1031.07
2019-02-24T03:25:22.149Z,1031.07
2019-02-24T03:25:48.263Z,1031.07
2019-02-24T03:26:14.362Z,1031.09
2019-02-24T03:26:40.524Z,1031.1
2019-02-24T03:27:06.672Z,1031.14
2019-02-24T03:27:32.778Z,1031.12
2019-02-24T03:27:58.888Z,1031.15
2019-02-24T03:28:25.017Z,1031.17
2019-02-24T03:28:51.128Z,1031.17
2019-02-24T03:29:19.253Z,1031.17
2019-02-24T03:29:45.356Z,1031.16
2019-02-24T03:30:11.515Z,1031.15
2019-02-24T03:30:37.664Z,1031.16
2019-02-24T03:31:03.798Z,1031.17
2019-02-24T03:31:29.942Z,1031.12
2019-02-24T03:31:55.994Z,1031.18
2019-02-24T03:32:22.120Z,1031.17
2019-02-24T03:32:48.258Z,1031.2
2019-02-24T03:33:14.354Z,1031.21
2019-02-24T03:33:40.546Z,1031.18
2019-02-24T03:34:06.748Z,1031.18
2019-02-24T03:34:32.880Z,1031.15
2019-02-24T03:34:59.006Z,1031.17
2019-02-24T03:35:25.112Z,1031.2
2019-02-24T03:35:51.240Z,1031.17
2019-02-24T03:36:17.354Z,1031.19
2019-02-24T03:36:43.456Z,1031.17
2019-02-24T03:37:09.564Z,1031.18
2019-02-24T03:37:35.674Z,1031.17
2019-02-24T03:38:01.787Z,1031.18
2019-02-24T03:38:27.894Z,1031.18
2019-02-24T03:38:53.998Z,1031.2
2019-02-24T03:39:20.102Z,1031.22
2019-02-24T03:39:46.207Z,1031.23
2019-02-24T03:40:12.313Z,1031.2
2019-02-24T03:40:38.442Z,1031.2
2019-02-24T03:41:04.592Z,1031.18
2019-02-24T03:41:30.740Z,1031.19
2019-02-24T03:41:56.861Z,1031.19
2019-02-24T03:42:23.001Z,1031.18
2019-02-24T03:42:49.098Z,1031.15
2019-02-24T03:43:15.209Z,1031.2
2019-02-24T03:43:41.315Z,1031.14
2019-02-24T03:44:07.422Z,1031.15
2019-02-24T03:44:33.522Z,1031.17
2019-02-24T03:44:59.656Z,1031.15
2019-02-24T03:45:25.792Z,1031.14
2019-02-24T03:45:51.896Z,1031.1
2019-02-24T03:46:18.030Z,1031.15
2019-02-24T03:46:44.133Z,1031.11
2019-02-24T03:47:10.244Z,1031.09
2019-02-24T03:47:36.372Z,1031.1
2019-02-24T03:48:02.487Z,1031.12
2019-02-24T03:48:28.590Z,1031.1
2019-02-24T03:48:54.692Z,1031.12
2019-02-24T03:49:20.825Z,1031.11
2019-02-24T03:49:46.971Z,1031.09
2019-02-24T03:50:13.079Z,1031.14
2019-02-24T03:50:39.179Z,1031.12
2019-02-24T03:51:05.284Z,1031.14
2019-02-24T03:51:31.391Z,1031.16
2019-02-24T03:51:57.529Z,1031.17
2019-02-24T03:52:23.630Z,1031.16
2019-02-24T03:52:49.740Z,1031.23
2019-02-24T03:53:15.831Z,1031.22
2019-02-24T03:53:41.943Z,1031.21
2019-02-24T03:54:08.071Z,1031.23
2019-02-24T03:54:34.172Z,1031.24
2019-02-24T03:55:00.398Z,1031.23
2019-02-24T03:55:26.478Z,1031.25
2019-02-24T03:55:52.580Z,1031.26
2019-02-24T03:56:18.686Z,1031.24
2019-02-24T03:56:44.825Z,1031.27
2019-02-24T03:57:10.923Z,1031.28
2019-02-24T03:57:37.030Z,1031.24
2019-02-24T03:58:03.130Z,1031.25
2019-02-24T03:58:29.278Z,1031.27
2019-02-24T03:58:55.385Z,1031.28
2019-02-24T03:59:23.473Z,1031.27
2019-02-24T03:59:49.582Z,1031.27
2019-02-24T04:00:15.717Z,1031.28
2019-02-24T04:00:41.828Z,1031.24
2019-02-24T04:01:07.954Z,1031.28
2019-02-24T04:01:34.065Z,1031.3
2019-02-24T04:02:00.161Z,1031.26
2019-02-24T04:02:26.271Z,1031.3
2019-02-24T04:02:52.403Z,1031.25
2019-02-24T04:03:18.511Z,1031.27
2019-02-24T04:03:44.619Z,1031.27
2019-02-24T04:04:10.716Z,1031.28
2019-02-24T04:04:36.855Z,1031.26
2019-02-24T04:05:02.967Z,1031.24
2019-02-24T04:05:29.098Z,1031.21
2019-02-24T04:05:55.227Z,1031.21
2019-02-24T04:06:21.331Z,1031.25
2019-02-24T04:06:47.437Z,1031.21
2019-02-24T04:07:13.545Z,1031.22
2019-02-24T04:07:39.657Z,1031.2
2019-02-24T04:08:05.760Z,1031.2
2019-02-24T04:08:31.864Z,1031.23
2019-02-24T04:08:57.980Z,1031.22
2019-02-24T04:09:24.086Z,1031.2
2019-02-24T04:09:50.195Z,1031.19
2019-02-24T04:10:16.351Z,1031.18
2019-02-24T04:10:42.460Z,1031.16
2019-02-24T04:11:08.596Z,1031.18
2019-02-24T04:11:34.731Z,1031.19
2019-02-24T04:12:00.826Z,1031.15
2019-02-24T04:12:26.935Z,1031.18
2019-02-24T04:12:53.046Z,1031.16
2019-02-24T04:13:19.145Z,1031.18
2019-02-24T04:13:45.250Z,1031.15
2019-02-24T04:14:11.358Z,1031.22
2019-02-24T04:14:37.524Z,1031.18
2019-02-24T04:15:03.652Z,1031.21
2019-02-24T04:15:29.763Z,1031.19
2019-02-24T04:15:55.909Z,1031.21
2019-02-24T04:16:21.995Z,1031.19
2019-02-24T04:16:48.091Z,1031.19
2019-02-24T04:17:14.192Z,1031.18
2019-02-24T04:17:40.303Z,1031.16
2019-02-24T04:18:06.432Z,1031.18
2019-02-24T04:18:32.542Z,1031.19
2019-02-24T04:18:58.649Z,1031.18
2019-02-24T04:19:24.748Z,1031.19
2019-02-24T04:19:50.855Z,1031.18
2019-02-24T04:20:16.964Z,1031.15
2019-02-24T04:20:43.075Z,1031.18
2019-02-24T04:21:09.171Z,1031.18
2019-02-24T04:21:35.281Z,1031.19
2019-02-24T04:22:01.389Z,1031.18
2019-02-24T04:22:27.490Z,1031.19
2019-02-24T04:22:53.632Z,1031.21
2019-02-24T04:23:19.720Z,1031.2
2019-02-24T04:23:45.825Z,1031.18
2019-02-24T04:24:11.956Z,1031.19
2019-02-24T04:24:38.061Z,1031.17
2019-02-24T04:25:04.162Z,1031.2
2019-02-24T04:25:30.272Z,1031.23
2019-02-24T04:25:56.370Z,1031.2
2019-02-24T04:26:22.473Z,1031.19
2019-02-24T04:26:48.607Z,1031.19
2019-02-24T04:27:14.736Z,1031.16
2019-02-24T04:27:40.844Z,1031.15
2019-02-24T04:28:06.979Z,1031.15
2019-02-24T04:28:33.089Z,1031.13
2019-02-24T04:28:59.230Z,1031.1
2019-02-24T04:29:26.383Z,1031.1
2019-02-24T04:29:52.481Z,1031.08
2019-02-24T04:30:18.586Z,1031.09
2019-02-24T04:30:44.695Z,1031.09
2019-02-24T04:31:10.797Z,1031.08
2019-02-24T04:31:36.906Z,1031.08
2019-02-24T04:32:03.008Z,1031.06
2019-02-24T04:32:29.117Z,1031.1
2019-02-24T04:32:55.284Z,1031.06
2019-02-24T04:33:21.385Z,1031.08
2019-02-24T04:33:47.498Z,1031.08
2019-02-24T04:34:13.591Z,1031.07
2019-02-24T04:34:39.691Z,1031.08
2019-02-24T04:35:05.800Z,1031.08
2019-02-24T04:35:31.899Z,1031.08
2019-02-24T04:35:58.005Z,1031.08
2019-02-24T04:36:24.136Z,1031.12
2019-02-24T04:36:50.244Z,1031.09
2019-02-24T04:37:16.355Z,1031.07
2019-02-24T04:37:42.456Z,1031.1
2019-02-24T04:38:08.584Z,1031.11
2019-02-24T04:38:35.659Z,1031.13
2019-02-24T04:39:01.792Z,1031.07
2019-02-24T04:39:27.893Z,1031.11
2019-02-24T04:39:54.036Z,1031.09
2019-02-24T04:40:20.163Z,1031.1
2019-02-24T04:40:46.265Z,1031.11
2019-02-24T04:41:12.426Z,1031.09
2019-02-24T04:41:38.525Z,1031.1
2019-02-24T04:42:04.667Z,1031.14
2019-02-24T04:42:30.773Z,1031.11
2019-02-24T04:42:56.882Z,1031.1
2019-02-24T04:43:22.987Z,1031.18
2019-02-24T04:43:49.143Z,1031.19
2019-02-24T04:44:15.248Z,1031.15
2019-02-24T04:44:41.352Z,1031.22
2019-02-24T04:45:07.455Z,1031.19
2019-02-24T04:45:33.581Z,1031.22
2019-02-24T04:45:59.691Z,1031.25
2019-02-24T04:46:25.795Z,1031.24
2019-02-24T04:46:51.909Z,1031.25
2019-02-24T04:47:18.039Z,1031.2
2019-02-24T04:47:44.149Z,1031.26
2019-02-24T04:48:10.247Z,1031.24
2019-02-24T04:48:36.379Z,1031.24
2019-02-24T04:49:02.482Z,1031.23
2019-02-24T04:49:28.579Z,1031.22
2019-02-24T04:49:54.686Z,1031.22
2019-02-24T04:50:20.797Z,1031.22
2019-02-24T04:50:46.928Z,1031.22
2019-02-24T04:51:13.066Z,1031.2
2019-02-24T04:51:39.169Z,1031.22
2019-02-24T04:52:05.283Z,1031.24
2019-02-24T04:52:31.438Z,1031.26
2019-02-24T04:52:57.549Z,1031.24
2019-02-24T04:53:23.648Z,1031.26
2019-02-24T04:53:49.785Z,1031.25
2019-02-24T04:54:15.887Z,1031.28
2019-02-24T04:54:41.994Z,1031.29
2019-02-24T04:55:08.133Z,1031.27
2019-02-24T04:55:34.226Z,1031.28
2019-02-24T04:56:00.337Z,1031.29
2019-02-24T04:56:26.443Z,1031.28
2019-02-24T04:56:52.573Z,1031.25
2019-02-24T04:57:18.675Z,1031.26
2019-02-24T04:57:44.786Z,1031.28
2019-02-24T04:58:10.920Z,1031.27
2019-02-24T04:58:37.018Z,1031.25
2019-02-24T04:59:03.122Z,1031.25
2019-02-24T04:59:34.911Z,1031.23
2019-02-24T04:59:56.742Z,1031.21
2019-02-24T05:00:22.868Z,1031.19
2019-02-24T05:00:48.978Z,1031.19
2019-02-24T05:01:15.087Z,1031.21
2019-02-24T05:01:41.191Z,1031.18
2019-02-24T05:02:07.295Z,1031.17
2019-02-24T05:02:33.396Z,1031.15
2019-02-24T05:02:59.531Z,1031.18
2019-02-24T05:03:25.637Z,1031.16
2019-02-24T05:03:51.769Z,1031.15
2019-02-24T05:04:17.847Z,1031.16
2019-02-24T05:04:43.951Z,1031.16
2019-02-24T05:05:10.058Z,1031.15
2019-02-24T05:05:36.162Z,1031.14
2019-02-24T05:06:02.295Z,1031.1
2019-02-24T05:06:28.396Z,1031.11
2019-02-24T05:06:54.526Z,1031.1
2019-02-24T05:07:20.629Z,1031.14
2019-02-24T05:07:46.765Z,1031.13
2019-02-24T05:08:12.919Z,1031.09
2019-02-24T05:08:39.023Z,1031.06
2019-02-24T05:09:05.128Z,1031.1
2019-02-24T05:09:31.232Z,1031.12
2019-02-24T05:09:57.390Z,1031.11
2019-02-24T05:10:23.528Z,1031.1
2019-02-24T05:10:49.632Z,1031.12
2019-02-24T05:11:15.738Z,1031.07
2019-02-24T05:11:41.842Z,1031.14
2019-02-24T05:12:07.981Z,1031.1
2019-02-24T05:12:34.087Z,1031.11
2019-02-24T05:13:00.191Z,1031.15
2019-02-24T05:13:26.294Z,1031.1
2019-02-24T05:13:52.398Z,1031.14
2019-02-24T05:14:18.502Z,1031.15
2019-02-24T05:14:44.609Z,1031.13
2019-02-24T05:15:10.743Z,1031.13
2019-02-24T05:15:36.884Z,1031.08
2019-02-24T05:16:02.982Z,1031.15
2019-02-24T05:16:29.074Z,1031.1
2019-02-24T05:16:55.181Z,1031.13
2019-02-24T05:17:21.289Z,1031.12